Time;durP1;ratioP1;P1;durP2;ratioP2;P2;SDS_P1;SDS_P2;PMS_P1;PMS_P2;Temp;Humidity;BMP_temperature;BMP_pressure;BME280_temperature;BME280_humidity;BME280_pressure;Samples;Min_cycle;Max_cycle;Signal;HPM_P1;HPM_P2
2022/07/31 00:01:03;;;;;;;;;;;;;;;21.62;62.53;100503.11;1651666;85;20556;-67
2022/07/31 00:03:29;;;;;;;;;;;;;;;21.61;62.49;100500.70;1650736;85;20185;-66
2022/07/31 00:05:56;;;;;;;;;;;;;;;21.57;62.50;100501.15;1651106;85;20182;-66
2022/07/31 00:08:22;;;;;;;;;;;;;;;21.49;62.46;100497.38;1651002;85;20205;-66
2022/07/31 00:10:49;;;;;;;;;;;;;;;21.44;62.46;100494.28;1651449;85;20433;-66
2022/07/31 00:13:16;;;;;;;;;;;;;;;21.38;62.52;100486.66;1653619;85;21180;-66
2022/07/31 00:15:42;;;;;;;;;;;;;;;21.29;62.69;100482.64;1651759;85;20186;-66
2022/07/31 00:18:09;;;;;;;;;;;;;;;21.21;62.84;100478.84;1625439;85;20182;-66
2022/07/31 00:20:35;;;;;;;;;;;;;;;21.13;62.92;100475.63;1651262;85;20591;-67
2022/07/31 00:23:03;;;;;;;;;;;;;;;21.34;62.31;100481.64;1651444;85;20413;-66
2022/07/31 00:25:30;;;;;;;;;;;;;;;21.36;62.06;100474.78;1651771;85;21152;-66
2022/07/31 00:27:57;;;;;;;;;;;;;;;21.35;61.91;100475.89;1650855;85;20277;-67
2022/07/31 00:30:23;;;;;;;;;;;;;;;21.34;61.78;100474.84;1651326;85;20496;-66
2022/07/31 00:32:50;;;;;;;;;;;;;;;21.33;61.72;100477.34;1650785;85;20189;-66
2022/07/31 00:35:16;;;;;;;;;;;;;;;21.30;61.65;100474.14;1650734;85;20151;-66
2022/07/31 00:37:43;;;;;;;;;;;;;;;21.29;61.60;100464.98;1651126;85;21176;-66
2022/07/31 00:40:12;;;;;;;;;;;;;;;21.30;61.53;100470.64;1650320;85;20180;-66
2022/07/31 00:42:39;;;;;;;;;;;;;;;21.29;61.38;100465.77;1653808;85;20150;-67
2022/07/31 00:45:06;;;;;;;;;;;;;;;21.28;61.34;100462.80;1652322;85;20182;-67
2022/07/31 00:47:34;;;;;;;;;;;;;;;21.29;61.24;100458.19;1651121;85;20185;-66
2022/07/31 00:50:03;;;;;;;;;;;;;;;21.30;61.20;100458.41;1650992;85;21155;-66
2022/07/31 00:52:29;;;;;;;;;;;;;;;21.26;61.15;100453.42;1651340;85;21187;-66
2022/07/31 00:54:56;;;;;;;;;;;;;;;21.23;61.16;100457.59;1652661;85;20186;-67
2022/07/31 00:57:22;;;;;;;;;;;;;;;21.21;61.16;100458.47;1651839;86;20149;-67
2022/07/31 00:59:49;;;;;;;;;;;;;;;21.20;61.09;100452.81;1652331;85;20240;-67
2022/07/31 01:02:15;;;;;;;;;;;;;;;21.23;60.89;100452.16;1651650;85;20613;-65
2022/07/31 01:04:42;;;;;;;;;;;;;;;21.26;60.80;100452.85;1653371;85;20253;-66
2022/07/31 01:07:08;;;;;;;;;;;;;;;21.28;60.61;100451.94;1653928;86;20179;-66
2022/07/31 01:09:35;;;;;;;;;;;;;;;21.31;60.42;100451.84;1651733;85;20189;-66
2022/07/31 01:12:04;;;;;;;;;;;;;;;21.30;60.29;100449.70;1662061;86;20949;-67
2022/07/31 01:14:37;;;;;;;;;;;;;;;21.29;60.25;100445.40;1661379;86;21947;-67
2022/07/31 01:17:05;;;;;;;;;;;;;;;21.28;60.18;100442.43;1634546;86;20600;-66
2022/07/31 01:19:39;;;;;;;;;;;;;;;21.26;60.14;100443.91;1662475;84;20235;-66
2022/07/31 01:22:42;;;;;;;;;;;;;;;21.23;60.18;100445.36;1634569;86;20187;-66
2022/07/31 01:25:12;;;;;;;;;;;;;;;21.21;60.23;100441.38;1646008;85;20506;-66
2022/07/31 01:28:03;;;;;;;;;;;;;;;21.16;60.33;100450.53;1644256;85;21119;-66
2022/07/31 01:30:34;;;;;;;;;;;;;;;21.18;60.29;100442.04;1648025;85;20209;-65
2022/07/31 01:33:04;;;;;;;;;;;;;;;21.20;60.15;100444.66;1645781;85;20484;-67
2022/07/31 01:35:34;;;;;;;;;;;;;;;21.20;60.08;100448.73;1651979;85;20194;-66
2022/07/31 01:38:05;;;;;;;;;;;;;;;21.20;59.95;100446.02;1648076;85;20135;-66
2022/07/31 01:40:34;;;;;;;;;;;;;;;21.22;59.81;100443.78;1647317;85;21185;-65
2022/07/31 01:43:07;;;;;;;;;;;;;;;21.22;59.74;100442.96;1645453;85;20147;-66
2022/07/31 01:45:35;;;;;;;;;;;;;;;21.17;59.95;100443.17;1645057;85;20508;-67
2022/07/31 01:48:02;;;;;;;;;;;;;;;21.12;59.93;100440.08;1647009;85;20155;-66
2022/07/31 01:50:31;;;;;;;;;;;;;;;21.09;59.89;100443.45;1648121;85;20492;-67
2022/07/31 01:52:59;;;;;;;;;;;;;;;21.03;59.96;100440.16;1627019;86;21104;-66
2022/07/31 01:55:26;;;;;;;;;;;;;;;20.99;60.04;100438.41;1648267;85;20212;-66
2022/07/31 01:57:53;;;;;;;;;;;;;;;20.95;60.13;100439.64;1646427;85;20146;-66
2022/07/31 02:00:20;;;;;;;;;;;;;;;20.90;60.26;100441.20;1646889;85;20823;-66
2022/07/31 02:02:47;;;;;;;;;;;;;;;20.87;60.39;100440.50;1646298;85;20221;-66
2022/07/31 02:05:13;;;;;;;;;;;;;;;20.81;60.57;100437.17;1646079;85;21196;-67
2022/07/31 02:07:40;;;;;;;;;;;;;;;20.78;60.69;100439.75;1646391;85;20264;-67
2022/07/31 02:10:12;;;;;;;;;;;;;;;20.75;60.86;100445.27;1646379;85;20162;-67
2022/07/31 02:12:40;;;;;;;;;;;;;;;20.69;61.02;100452.00;1649617;85;20181;-67
2022/07/31 02:15:09;;;;;;;;;;;;;;;20.67;61.08;100446.69;1647260;87;20174;-67
2022/07/31 02:17:37;;;;;;;;;;;;;;;20.66;61.20;100451.86;1647920;85;21303;-66
2022/07/31 02:20:17;;;;;;;;;;;;;;;20.69;61.19;100455.28;1643329;85;20198;-69
2022/07/31 02:22:45;;;;;;;;;;;;;;;20.74;61.23;100455.11;1645507;85;20154;-66
2022/07/31 02:25:11;;;;;;;;;;;;;;;20.78;61.31;100457.39;1647139;86;20142;-67
2022/07/31 02:27:39;;;;;;;;;;;;;;;20.80;61.33;100453.80;1649117;85;20142;-66
2022/07/31 02:30:07;;;;;;;;;;;;;;;20.84;61.30;100460.16;1662147;85;21130;-67
2022/07/31 02:32:34;;;;;;;;;;;;;;;20.87;61.32;100455.43;1661509;84;20228;-67
2022/07/31 02:35:01;;;;;;;;;;;;;;;20.90;61.29;100463.48;1646416;85;20193;-67
2022/07/31 02:37:28;;;;;;;;;;;;;;;20.90;61.15;100459.41;1646255;85;20731;-66
2022/07/31 02:39:55;;;;;;;;;;;;;;;20.92;61.01;100463.94;1647102;85;20561;-66
2022/07/31 02:42:21;;;;;;;;;;;;;;;20.88;60.85;100457.58;1646306;85;21153;-66
2022/07/31 02:44:48;;;;;;;;;;;;;;;20.84;60.74;100456.88;1646230;85;20190;-66
2022/07/31 02:47:15;;;;;;;;;;;;;;;20.77;60.66;100466.10;1646250;85;20142;-65
2022/07/31 02:49:42;;;;;;;;;;;;;;;20.72;60.73;100466.28;1647100;85;20269;-65
2022/07/31 02:52:08;;;;;;;;;;;;;;;20.65;60.58;100463.28;1647878;85;20494;-66
2022/07/31 02:54:38;;;;;;;;;;;;;;;20.59;60.42;100464.02;1648054;87;21302;-66
2022/07/31 02:57:04;;;;;;;;;;;;;;;20.53;60.30;100459.09;1648044;87;20186;-67
2022/07/31 02:59:37;;;;;;;;;;;;;;;20.48;60.25;100461.98;1648309;85;20185;-66
2022/07/31 03:02:03;;;;;;;;;;;;;;;20.44;60.18;100465.12;1645228;85;20461;-67
2022/07/31 03:04:32;;;;;;;;;;;;;;;20.39;60.00;100466.08;1649133;87;20142;-67
2022/07/31 03:06:59;;;;;;;;;;;;;;;20.36;59.99;100464.80;1648234;86;21134;-67
2022/07/31 03:09:29;;;;;;;;;;;;;;;20.35;59.90;100467.85;1647502;85;20198;-67
2022/07/31 03:11:58;;;;;;;;;;;;;;;20.31;59.90;100468.27;1644607;85;20294;-67
2022/07/31 03:14:24;;;;;;;;;;;;;;;20.29;59.96;100456.94;1646043;85;20179;-66
2022/07/31 03:16:52;;;;;;;;;;;;;;;20.29;59.98;100461.01;1646628;85;20138;-66
2022/07/31 03:19:20;;;;;;;;;;;;;;;20.28;60.01;100458.07;1645824;85;21146;-66
2022/07/31 03:21:47;;;;;;;;;;;;;;;20.30;59.91;100460.70;1646157;85;20997;-66
2022/07/31 03:24:14;;;;;;;;;;;;;;;20.31;59.81;100462.28;1647125;85;20520;-66
2022/07/31 03:26:40;;;;;;;;;;;;;;;20.37;59.72;100464.27;1646206;85;20218;-67
2022/07/31 03:29:07;;;;;;;;;;;;;;;20.40;59.53;100466.33;1636072;85;20338;-67
2022/07/31 03:31:34;;;;;;;;;;;;;;;20.46;59.74;100466.92;1644851;85;21391;-67
2022/07/31 03:34:00;;;;;;;;;;;;;;;20.50;59.66;100464.61;1662083;84;20601;-67
2022/07/31 03:36:28;;;;;;;;;;;;;;;20.55;59.61;100460.37;1645587;85;20255;-66
2022/07/31 03:38:55;;;;;;;;;;;;;;;20.59;59.56;100457.80;1647385;85;20186;-67
2022/07/31 03:41:26;;;;;;;;;;;;;;;20.65;59.10;100458.42;1646124;85;20487;-67
2022/07/31 03:43:53;;;;;;;;;;;;;;;20.73;59.21;100460.28;1647166;85;21127;-67
2022/07/31 03:46:21;;;;;;;;;;;;;;;20.80;58.65;100460.02;1646540;85;20487;-67
2022/07/31 03:48:50;;;;;;;;;;;;;;;20.90;58.49;100460.20;1647593;85;20189;-67
2022/07/31 03:51:17;;;;;;;;;;;;;;;20.99;58.10;100457.42;1649073;86;20135;-67
2022/07/31 03:53:44;;;;;;;;;;;;;;;21.06;57.69;100456.36;1648519;85;20185;-66
2022/07/31 03:56:12;;;;;;;;;;;;;;;21.12;57.57;100453.66;1621955;87;21193;-66
2022/07/31 03:58:39;;;;;;;;;;;;;;;21.19;57.37;100453.95;1621633;87;20420;-67
2022/07/31 04:01:06;;;;;;;;;;;;;;;21.27;57.59;100461.22;1644926;85;20228;-66
2022/07/31 04:03:33;;;;;;;;;;;;;;;21.37;57.47;100453.84;1649453;86;20257;-66
2022/07/31 04:06:11;;;;;;;;;;;;;;;21.48;57.35;100454.44;1646188;85;20515;-67
2022/07/31 04:08:38;;;;;;;;;;;;;;;21.59;57.01;100450.77;1647164;86;21263;-66
2022/07/31 04:11:04;;;;;;;;;;;;;;;21.67;56.66;100446.38;1647050;85;20154;-67
2022/07/31 04:13:34;;;;;;;;;;;;;;;21.78;56.64;100448.89;1647473;87;20233;-67
2022/07/31 04:16:32;;;;;;;;;;;;;;;21.88;56.45;100447.69;1597306;88;20182;-66
2022/07/31 04:18:59;;;;;;;;;;;;;;;21.99;56.53;100440.14;1617195;87;20222;-66
2022/07/31 04:21:26;;;;;;;;;;;;;;;22.07;56.28;100447.17;1606835;87;21313;-66
2022/07/31 04:23:53;;;;;;;;;;;;;;;22.15;56.06;100449.02;1652410;85;20210;-66
2022/07/31 04:26:24;;;;;;;;;;;;;;;22.20;55.81;100439.29;1645992;85;20194;-66
2022/07/31 04:28:53;;;;;;;;;;;;;;;22.26;55.70;100446.67;1650588;85;20146;-66
2022/07/31 04:31:19;;;;;;;;;;;;;;;22.36;55.67;100448.95;1651669;85;20221;-66
2022/07/31 04:33:47;;;;;;;;;;;;;;;22.45;55.73;100449.64;1648282;85;21250;-66
2022/07/31 04:36:16;;;;;;;;;;;;;;;22.55;55.15;100457.36;1648792;85;20175;-67
2022/07/31 04:38:42;;;;;;;;;;;;;;;22.64;55.00;100451.23;1637651;85;20184;-67
2022/07/31 04:41:10;;;;;;;;;;;;;;;22.75;54.89;100448.84;1658782;85;20502;-67
2022/07/31 04:43:37;;;;;;;;;;;;;;;22.92;54.66;100452.67;1679431;82;20144;-66
2022/07/31 04:46:04;;;;;;;;;;;;;;;23.07;54.29;100452.58;1693600;83;21310;-67
2022/07/31 04:48:32;;;;;;;;;;;;;;;23.22;54.01;100461.16;1699735;84;20186;-67
2022/07/31 04:50:58;;;;;;;;;;;;;;;23.33;53.45;100455.44;1702582;84;20185;-67
2022/07/31 04:53:25;;;;;;;;;;;;;;;23.44;53.27;100457.13;1699500;82;20143;-66
2022/07/31 04:58:37;;;;;;;;;;;;;;;23.77;52.50;100459.64;1699733;82;21181;-66
2022/07/31 05:01:03;;;;;;;;;;;;;;;23.95;51.91;100457.37;1699064;82;20287;-67
2022/07/31 05:03:31;;;;;;;;;;;;;;;24.05;51.67;100459.04;1699635;82;20229;-66
2022/07/31 05:06:10;;;;;;;;;;;;;;;24.18;51.62;100463.03;1703045;83;20123;-66
2022/07/31 05:08:37;;;;;;;;;;;;;;;24.31;51.50;100458.50;1671138;82;20134;-66
2022/07/31 05:11:23;;;;;;;;;;;;;;;24.50;51.24;100451.58;1699005;82;21172;-67
2022/07/31 05:13:55;;;;;;;;;;;;;;;24.65;51.03;100447.26;1702329;82;20135;-68
2022/07/31 05:16:22;;;;;;;;;;;;;;;24.80;50.35;100443.69;1700915;82;20131;-66
2022/07/31 05:18:50;;;;;;;;;;;;;;;24.93;49.74;100436.95;1701028;82;20487;-66
2022/07/31 05:21:37;;;;;;;;;;;;;;;25.10;49.61;100432.23;1623084;86;20487;-68
2022/07/31 05:24:06;;;;;;;;;;;;;;;25.21;49.36;100432.72;1622774;86;21899;-66
2022/07/31 05:26:37;;;;;;;;;;;;;;;25.30;49.01;100435.22;1652867;82;20151;-68
2022/07/31 05:29:04;;;;;;;;;;;;;;;25.43;48.96;100431.77;1702359;82;20410;-67
2022/07/31 05:31:31;;;;;;;;;;;;;;;25.52;48.60;100437.03;1701508;82;20139;-67
2022/07/31 05:33:58;;;;;;;;;;;;;;;25.60;48.53;100438.73;1699417;82;20187;-67
2022/07/31 05:36:25;;;;;;;;;;;;;;;25.62;48.26;100441.33;1702154;82;21184;-68
2022/07/31 05:38:52;;;;;;;;;;;;;;;25.71;48.16;100438.38;1699842;82;20421;-67
2022/07/31 05:41:37;;;;;;;;;;;;;;;25.81;48.00;100442.50;1699896;82;20186;-65
2022/07/31 05:44:05;;;;;;;;;;;;;;;25.94;47.41;100439.22;1700127;84;20147;-65
2022/07/31 05:46:36;;;;;;;;;;;;;;;26.07;46.76;100445.31;1699310;82;20190;-66
2022/07/31 05:49:03;;;;;;;;;;;;;;;26.19;46.93;100441.03;1702906;84;21006;-66
2022/07/31 05:51:30;;;;;;;;;;;;;;;26.33;46.57;100447.90;1701114;82;20205;-66
2022/07/31 05:53:57;;;;;;;;;;;;;;;26.47;45.93;100444.59;1700147;82;20185;-66
2022/07/31 05:56:40;;;;;;;;;;;;;;;26.57;45.85;100442.05;1599341;89;20447;-66
2022/07/31 05:59:08;;;;;;;;;;;;;;;26.72;45.51;100435.39;1669178;83;20441;-67
2022/07/31 06:01:35;;;;;;;;;;;;;;;26.86;45.02;100435.62;1692174;82;21118;-66
2022/07/31 06:04:03;;;;;;;;;;;;;;;26.97;44.76;100426.95;1698943;82;20241;-67
2022/07/31 06:06:31;;;;;;;;;;;;;;;27.07;44.03;100430.98;1699103;82;20142;-67
2022/07/31 06:08:59;;;;;;;;;;;;;;;27.14;44.03;100435.22;1699860;82;20131;-67
2022/07/31 06:11:26;;;;;;;;;;;;;;;27.22;44.09;100434.75;1700606;82;20142;-67
2022/07/31 06:13:54;;;;;;;;;;;;;;;27.31;43.81;100436.05;1700869;82;21217;-66
2022/07/31 06:16:22;;;;;;;;;;;;;;;27.41;43.90;100431.03;1695516;82;20170;-66
2022/07/31 06:18:49;;;;;;;;;;;;;;;27.48;43.44;100435.25;1696943;82;20146;-66
2022/07/31 06:21:17;;;;;;;;;;;;;;;27.54;43.32;100431.80;1699096;82;20130;-65
2022/07/31 06:23:43;;;;;;;;;;;;;;;27.62;42.96;100429.12;1698181;82;20143;-66
2022/07/31 06:26:17;;;;;;;;;;;;;;;27.70;43.04;100431.55;1699215;82;21245;-65
2022/07/31 06:28:44;;;;;;;;;;;;;;;27.79;42.36;100429.33;1699814;82;20189;-65
2022/07/31 06:31:19;;;;;;;;;;;;;;;27.87;41.53;100429.39;1699680;82;20145;-66
2022/07/31 06:33:47;;;;;;;;;;;;;;;27.95;41.43;100426.94;1699375;82;20921;-65
2022/07/31 06:36:14;;;;;;;;;;;;;;;28.01;41.14;100424.05;1699732;82;20174;-65
2022/07/31 06:38:42;;;;;;;;;;;;;;;28.08;40.99;100419.20;1697818;82;21242;-65
2022/07/31 06:41:43;;;;;;;;;;;;;;;28.14;40.69;100412.98;1699310;82;20372;-65
2022/07/31 06:44:31;;;;;;;;;;;;;;;28.24;40.57;100413.66;1699348;82;20182;-66
2022/07/31 06:47:17;;;;;;;;;;;;;;;28.35;40.34;100405.48;1662593;84;20153;-73
2022/07/31 06:49:51;;;;;;;;;;;;;;;28.39;39.74;100405.51;1652961;85;20208;-65
2022/07/31 06:52:18;;;;;;;;;;;;;;;28.39;39.42;100406.88;1666276;84;21348;-67
2022/07/31 06:54:46;;;;;;;;;;;;;;;28.40;39.58;100409.30;1665210;84;20246;-66
2022/07/31 06:57:13;;;;;;;;;;;;;;;28.47;39.60;100397.56;1665703;84;20184;-66
2022/07/31 06:59:40;;;;;;;;;;;;;;;28.53;39.36;100397.41;1666228;84;20510;-66
2022/07/31 07:02:07;;;;;;;;;;;;;;;28.60;39.33;100397.45;1666672;84;20180;-67
2022/07/31 07:04:34;;;;;;;;;;;;;;;28.68;39.33;100394.94;1646200;84;21142;-66
2022/07/31 07:07:01;;;;;;;;;;;;;;;28.78;39.01;100391.27;1667807;84;20160;-67
2022/07/31 07:09:28;;;;;;;;;;;;;;;28.90;38.43;100394.47;1668819;86;20247;-66
2022/07/31 07:11:55;;;;;;;;;;;;;;;28.97;37.97;100389.00;1668348;84;20294;-66
2022/07/31 07:14:22;;;;;;;;;;;;;;;29.05;37.84;100387.09;1666073;84;20218;-66
2022/07/31 07:16:48;;;;;;;;;;;;;;;29.13;37.61;100381.05;1665546;84;21911;-66
2022/07/31 07:19:16;;;;;;;;;;;;;;;29.17;37.10;100382.63;1668014;84;20526;-66
2022/07/31 07:21:43;;;;;;;;;;;;;;;29.24;37.51;100383.83;1668123;84;20200;-67
2022/07/31 07:24:09;;;;;;;;;;;;;;;29.31;37.07;100377.74;1668626;86;20184;-66
2022/07/31 07:26:40;;;;;;;;;;;;;;;29.39;37.29;100374.44;1668126;85;20239;-66
2022/07/31 07:29:09;;;;;;;;;;;;;;;29.49;36.56;100381.15;1666397;84;21322;-66
2022/07/31 07:31:36;;;;;;;;;;;;;;;29.53;36.64;100378.59;1665999;84;20203;-66
2022/07/31 07:34:05;;;;;;;;;;;;;;;29.56;36.25;100386.06;1666370;84;20217;-65
2022/07/31 07:36:32;;;;;;;;;;;;;;;29.58;36.07;100378.78;1667019;84;20614;-67
2022/07/31 07:39:03;;;;;;;;;;;;;;;29.58;35.64;100374.09;1664873;84;20208;-66
2022/07/31 07:41:31;;;;;;;;;;;;;;;29.67;36.07;100377.84;1664187;84;20443;-66
2022/07/31 07:43:58;;;;;;;;;;;;;;;29.75;35.32;100382.20;1668564;86;20176;-66
2022/07/31 07:46:27;;;;;;;;;;;;;;;29.78;34.92;100381.98;1668568;84;20259;-65
2022/07/31 07:48:55;;;;;;;;;;;;;;;29.83;35.52;100387.11;1667406;84;20175;-65
2022/07/31 07:51:35;;;;;;;;;;;;;;;29.91;35.46;100375.72;1668794;86;20474;-66
2022/07/31 07:54:19;;;;;;;;;;;;;;;30.03;35.48;100371.77;1669664;85;21151;-67
2022/07/31 07:57:04;;;;;;;;;;;;;;;30.14;34.99;100373.13;1666936;84;20160;-65
2022/07/31 07:59:33;;;;;;;;;;;;;;;30.22;34.47;100369.23;1662485;84;20239;-65
2022/07/31 08:02:18;;;;;;;;;;;;;;;30.27;34.85;100372.17;1666296;84;20234;-66
2022/07/31 08:04:44;;;;;;;;;;;;;;;30.31;34.16;100374.34;1668322;84;20565;-66
2022/07/31 08:07:11;;;;;;;;;;;;;;;30.34;33.94;100372.97;1668742;86;21156;-66
2022/07/31 08:09:39;;;;;;;;;;;;;;;30.37;33.75;100368.61;1668504;84;20252;-66
2022/07/31 08:12:13;;;;;;;;;;;;;;;30.41;33.73;100368.03;1669000;86;20447;-66
2022/07/31 08:14:45;;;;;;;;;;;;;;;30.46;33.37;100368.20;1640606;85;20192;-67
2022/07/31 08:17:30;;;;;;;;;;;;;;;30.53;33.52;100370.34;1668823;84;20207;-65
2022/07/31 08:19:57;;;;;;;;;;;;;;;30.59;33.77;100363.84;1668721;86;21246;-66
2022/07/31 08:22:23;;;;;;;;;;;;;;;30.68;33.21;100358.70;1665780;84;20215;-65
2022/07/31 08:24:50;;;;;;;;;;;;;;;30.74;32.92;100356.33;1665482;84;20328;-67
2022/07/31 08:27:23;;;;;;;;;;;;;;;30.78;32.66;100359.88;1665584;84;20168;-65
2022/07/31 08:29:57;;;;;;;;;;;;;;;30.82;32.44;100360.64;1666253;84;20230;-66
2022/07/31 08:32:27;;;;;;;;;;;;;;;30.85;32.41;100361.23;1665387;84;21167;-66
2022/07/31 08:34:58;;;;;;;;;;;;;;;30.91;32.61;100359.63;1666966;84;20516;-66
2022/07/31 08:37:26;;;;;;;;;;;;;;;30.96;31.87;100357.03;1651018;86;20569;-67
2022/07/31 08:39:53;;;;;;;;;;;;;;;31.00;31.33;100356.45;1667203;86;20212;-66
2022/07/31 08:42:19;;;;;;;;;;;;;;;31.03;31.04;100353.67;1667669;84;20231;-67
2022/07/31 08:44:46;;;;;;;;;;;;;;;31.05;31.32;100358.17;1651126;86;21307;-66
2022/07/31 08:47:14;;;;;;;;;;;;;;;31.12;31.85;100349.08;1668775;86;20164;-66
2022/07/31 08:49:43;;;;;;;;;;;;;;;31.20;31.08;100350.62;1668758;84;20184;-67
2022/07/31 08:52:13;;;;;;;;;;;;;;;31.30;31.54;100354.51;1668930;86;20175;-66
2022/07/31 08:54:45;;;;;;;;;;;;;;;31.41;31.31;100340.66;1667055;85;20164;-66
2022/07/31 08:57:11;;;;;;;;;;;;;;;31.49;30.71;100342.98;1668672;86;21229;-66
2022/07/31 08:59:40;;;;;;;;;;;;;;;31.57;30.71;100334.64;1668558;84;20159;-66
2022/07/31 09:02:10;;;;;;;;;;;;;;;31.61;30.35;100331.25;1668868;85;20179;-67
2022/07/31 09:04:38;;;;;;;;;;;;;;;31.65;30.07;100325.10;1668612;86;20193;-66
2022/07/31 09:07:09;;;;;;;;;;;;;;;31.67;30.35;100322.73;1668725;86;20208;-66
2022/07/31 09:09:35;;;;;;;;;;;;;;;31.73;30.73;100326.03;1651246;85;21180;-68
2022/07/31 09:12:02;;;;;;;;;;;;;;;31.80;30.85;100315.52;1668792;86;20159;-65
2022/07/31 09:14:48;;;;;;;;;;;;;;;31.89;30.03;100317.85;1665840;86;20463;-67
2022/07/31 09:17:15;;;;;;;;;;;;;;;31.92;30.28;100312.29;1668569;84;20231;-68
2022/07/31 09:19:43;;;;;;;;;;;;;;;31.97;30.23;100312.44;1665742;84;20195;-68
2022/07/31 09:22:24;;;;;;;;;;;;;;;32.00;30.07;100306.88;1664333;84;21068;-66
2022/07/31 09:24:53;;;;;;;;;;;;;;;32.03;29.21;100301.73;1665373;84;20282;-66
2022/07/31 09:27:24;;;;;;;;;;;;;;;32.02;29.58;100299.57;1664730;84;20242;-66
2022/07/31 09:29:51;;;;;;;;;;;;;;;32.04;29.42;100301.91;1665088;84;20511;-66
2022/07/31 09:32:20;;;;;;;;;;;;;;;32.07;30.08;100305.23;1651978;84;20465;-67
2022/07/31 09:34:52;;;;;;;;;;;;;;;32.12;29.71;100299.28;1663899;84;21251;-66
2022/07/31 09:37:20;;;;;;;;;;;;;;;32.17;29.44;100301.58;1665981;84;20184;-66
2022/07/31 09:40:07;;;;;;;;;;;;;;;32.20;29.49;100306.28;1666004;84;20242;-66
2022/07/31 09:42:51;;;;;;;;;;;;;;;32.23;28.90;100301.32;1665886;84;20510;-66
2022/07/31 09:45:21;;;;;;;;;;;;;;;32.29;28.99;100301.06;1665593;84;20474;-68
2022/07/31 09:48:03;;;;;;;;;;;;;;;32.33;29.50;100295.49;1667397;84;21858;-66
2022/07/31 09:50:30;;;;;;;;;;;;;;;32.36;28.66;100298.21;1663933;86;20172;-66
2022/07/31 09:52:59;;;;;;;;;;;;;;;32.38;28.71;100301.36;1664714;84;20202;-66
2022/07/31 09:55:26;;;;;;;;;;;;;;;32.42;29.00;100299.36;1660143;84;20408;-66
2022/07/31 09:57:57;;;;;;;;;;;;;;;32.43;28.94;100297.38;1629884;86;20219;-66
2022/07/31 10:00:26;;;;;;;;;;;;;;;32.47;29.06;100292.58;1550124;84;9999709;-75
2022/07/31 10:02:53;;;;;;;;;;;;;;;32.53;28.66;100294.30;1657486;84;20490;-73
2022/07/31 10:05:24;;;;;;;;;;;;;;;32.59;28.43;100292.65;1683479;84;20539;-76
2022/07/31 10:07:52;;;;;;;;;;;;;;;32.64;28.50;100299.09;1688573;84;20201;-76
2022/07/31 10:10:21;;;;;;;;;;;;;;;32.62;28.55;100292.60;1676866;84;21036;-76
2022/07/31 10:12:55;;;;;;;;;;;;;;;32.63;28.54;100286.47;1687164;84;20227;-76
2022/07/31 10:15:22;;;;;;;;;;;;;;;32.63;29.07;100289.23;1667358;85;20569;-75
2022/07/31 10:17:50;;;;;;;;;;;;;;;32.66;28.95;100280.89;1673684;84;20374;-76
2022/07/31 10:20:23;;;;;;;;;;;;;;;32.69;28.63;100280.67;1665504;84;20211;-74
2022/07/31 10:23:16;;;;;;;;;;;;;;;32.68;27.90;100278.50;1671855;84;21251;-78
2022/07/31 10:25:47;;;;;;;;;;;;;;;32.69;28.18;100273.15;1678514;84;20204;-75
2022/07/31 10:28:13;;;;;;;;;;;;;;;32.75;28.23;100271.31;1695328;84;20412;-76
2022/07/31 10:30:40;;;;;;;;;;;;;;;32.80;27.05;100271.62;1696287;83;20170;-77
2022/07/31 10:33:07;;;;;;;;;;;;;;;32.70;25.62;100267.80;1676990;84;20146;-77
2022/07/31 10:35:42;;;;;;;;;;;;;;;32.62;26.62;100271.09;1692962;84;21048;-75
2022/07/31 10:38:48;;;;;;;;;;;;;;;32.63;26.96;100258.21;1680968;83;20227;-75
2022/07/31 10:41:31;;;;;;;;;;;;;;;32.67;27.07;100263.70;1666939;85;20192;-75
2022/07/31 10:44:04;;;;;;;;;;;;;;;32.77;27.83;100253.69;1669266;86;20467;-73
2022/07/31 10:46:39;;;;;;;;;;;;;;;32.81;28.31;100258.59;1551325;84;9999693;-72
2022/07/31 10:49:13;;;;;;;;;;;;;;;32.84;27.81;100261.31;1681975;84;20558;-76
2022/07/31 10:51:58;;;;;;;;;;;;;;;32.89;26.51;100254.52;1682335;84;20182;-75
2022/07/31 10:54:45;;;;;;;;;;;;;;;32.82;25.54;100241.57;1677739;84;20239;-74
2022/07/31 10:57:32;;;;;;;;;;;;;;;32.71;25.92;100246.48;1667345;84;20199;-74
2022/07/31 11:00:11;;;;;;;;;;;;;;;32.64;27.10;100251.50;1652718;85;22109;-73
2022/07/31 11:02:57;;;;;;;;;;;;;;;32.68;26.25;100243.16;1679644;84;20467;-78
2022/07/31 11:05:28;;;;;;;;;;;;;;;32.62;25.53;100233.76;1679454;84;20211;-75
2022/07/31 11:08:01;;;;;;;;;;;;;;;32.61;26.50;100239.08;1660476;84;20223;-74
2022/07/31 11:10:30;;;;;;;;;;;;;;;32.67;26.88;100229.91;1691111;84;20217;-76
2022/07/31 11:13:15;;;;;;;;;;;;;;;32.80;26.80;100230.73;1662192;84;20511;-72
2022/07/31 11:15:51;;;;;;;;;;;;;;;32.94;26.75;100219.48;1673758;84;20334;-78
2022/07/31 11:18:46;;;;;;;;;;;;;;;33.01;25.71;100220.00;1674384;84;20176;-75
2022/07/31 11:21:15;;;;;;;;;;;;;;;32.87;25.62;100217.60;1658634;85;20623;-74
2022/07/31 11:23:45;;;;;;;;;;;;;;;32.85;26.10;100219.21;1665069;84;20255;-76
2022/07/31 11:26:13;;;;;;;;;;;;;;;32.84;25.73;100214.28;1647965;84;21262;-76
2022/07/31 11:28:42;;;;;;;;;;;;;;;32.88;26.47;100212.84;1624751;84;20467;-74
2022/07/31 11:31:09;;;;;;;;;;;;;;;32.94;26.54;100212.56;1667810;84;20255;-73
2022/07/31 11:33:41;;;;;;;;;;;;;;;32.90;26.06;100211.20;1655242;84;20135;-73
2022/07/31 11:36:10;;;;;;;;;;;;;;;32.87;26.16;100215.41;1665186;84;20200;-73
2022/07/31 11:38:38;;;;;;;;;;;;;;;32.90;26.46;100212.59;1663861;84;21121;-77
2022/07/31 11:41:04;;;;;;;;;;;;;;;33.00;26.21;100208.73;1664190;84;20263;-77
2022/07/31 11:43:33;;;;;;;;;;;;;;;33.11;26.21;100206.59;1666251;84;20214;-79
2022/07/31 11:45:59;;;;;;;;;;;;;;;33.13;26.01;100204.95;1666068;84;20204;-76
2022/07/31 11:48:26;;;;;;;;;;;;;;;33.11;26.37;100206.59;1665750;84;20202;-74
2022/07/31 11:50:52;;;;;;;;;;;;;;;33.14;26.36;100205.16;1665455;84;21286;-74
2022/07/31 11:53:20;;;;;;;;;;;;;;;33.20;26.16;100208.81;1665370;84;20218;-74
2022/07/31 11:55:58;;;;;;;;;;;;;;;33.27;26.56;100207.30;1667525;84;20176;-74
2022/07/31 11:58:26;;;;;;;;;;;;;;;33.34;26.27;100205.83;1668777;84;20161;-75
2022/07/31 12:00:55;;;;;;;;;;;;;;;33.39;26.27;100201.95;1679984;84;20263;-73
2022/07/31 12:03:31;;;;;;;;;;;;;;;33.42;26.58;100207.86;1668287;85;21142;-73
2022/07/31 12:05:58;;;;;;;;;;;;;;;33.43;26.55;100201.11;1668745;85;20164;-74
2022/07/31 12:08:24;;;;;;;;;;;;;;;33.43;26.56;100192.80;1668270;85;20236;-75
2022/07/31 12:10:55;;;;;;;;;;;;;;;33.48;25.85;100190.34;1557431;84;10000507;-76
2022/07/31 12:13:22;;;;;;;;;;;;;;;33.53;26.17;100194.62;1688950;84;21807;-73
2022/07/31 12:16:04;;;;;;;;;;;;;;;33.52;26.14;100193.08;1673571;84;20211;-75
2022/07/31 12:18:35;;;;;;;;;;;;;;;33.56;26.02;100195.17;1672404;84;20391;-75
2022/07/31 12:21:02;;;;;;;;;;;;;;;33.48;26.57;100190.34;1668518;84;20889;-76
2022/07/31 12:23:42;;;;;;;;;;;;;;;33.32;25.96;100178.55;1683105;84;20500;-75
2022/07/31 12:26:12;;;;;;;;;;;;;;;33.19;26.95;100183.73;1667672;84;21100;-76
2022/07/31 12:28:39;;;;;;;;;;;;;;;33.13;27.15;100188.95;1659638;85;20187;-76
2022/07/31 12:31:05;;;;;;;;;;;;;;;33.09;27.25;100185.47;1666830;85;20242;-77
2022/07/31 12:33:42;;;;;;;;;;;;;;;33.10;27.02;100182.87;1677753;84;20543;-74
2022/07/31 12:36:15;;;;;;;;;;;;;;;33.08;26.94;100170.86;1689978;83;20180;-75
2022/07/31 12:38:43;;;;;;;;;;;;;;;33.18;27.18;100181.56;1680112;84;21227;-76
2022/07/31 12:41:09;;;;;;;;;;;;;;;33.29;27.19;100171.09;1668692;84;20203;-77
2022/07/31 12:43:36;;;;;;;;;;;;;;;33.32;26.84;100177.16;1676958;84;20243;-74
2022/07/31 12:46:05;;;;;;;;;;;;;;;33.35;26.33;100175.55;1667128;84;20207;-76
2022/07/31 12:48:35;;;;;;;;;;;;;;;33.39;26.34;100175.65;1667129;84;37133;-75
2022/07/31 12:51:01;;;;;;;;;;;;;;;33.50;26.59;100178.86;1667584;84;21090;-77
2022/07/31 12:53:29;;;;;;;;;;;;;;;33.66;26.79;100179.56;1665925;86;20295;-76